MDT,Max TemperatureF,Mean TemperatureF,Min TemperatureF,Max Dew PointF,MeanDew PointF,Min DewpointF,Max Humidity, Mean Humidity, Min Humidity, Max Sea Level PressureIn, Mean Sea Level PressureIn, Min Sea Level PressureIn, Max VisibilityMiles, Mean VisibilityMiles, Min VisibilityMiles, Max Wind SpeedMPH, Mean Wind SpeedMPH, Max Gust SpeedMPH,PrecipitationIn, CloudCover, Events, WindDirDegrees
2013-7-1,90,82,75,72,65,61,73,54,42,29.90,29.84,29.78,15,12,8,15,7,,0.00,6,,228
2013-7-2,89,82,75,66,64,61,69,56,46,29.88,29.85,29.76,15,12,10,15,8,,0.00,5,,215
2013-7-3,89,82,75,73,65,63,72,56,43,29.87,29.82,29.74,15,12,10,12,7,,0.00,4,,228
2013-7-4,90,82,75,77,66,64,70,56,44,29.96,29.81,29.73,15,12,10,20,8,,0.00,4,Thunderstorm,285
2013-7-5,89,82,75,76,66,64,73,59,43,29.86,29.78,29.69,15,12,10,17,9,,0.00,4,,290
2013-7-6,89,82,75,74,66,64,69,57,43,29.86,29.71,29.62,14,12,10,17,8,,0.00,4,,248
2013-7-7,84,78,71,72,66,63,89,66,55,29.88,29.80,29.76,15,11,0,20,9,,0.00,8,Rain-Thunderstorm,138
2013-7-8,84,78,71,74,64,50,92,65,46,29.99,29.92,29.86,15,11,3,17,8,,0.28,7,Rain-Thunderstorm,14
2013-7-9,89,80,71,77,67,63,73,61,46,30.24,29.94,29.79,12,11,10,14,7,,0.00,6,,305
2013-7-10,91,83,75,78,68,63,82,66,49,29.96,29.92,29.86,12,11,9,14,6,,0.02,6,Rain-Thunderstorm,325
2013-7-11,87,80,73,76,68,64,84,66,49,29.95,29.87,29.80,15,12,10,16,5,,0.65,7,Rain-Thunderstorm,286
2013-7-12,89,81,73,76,68,64,85,66,51,29.91,29.85,29.80,15,11,10,14,6,,0.01,6,Rain,146
2013-7-13,88,80,73,75,67,64,78,64,51,29.91,29.85,29.77,12,10,6,13,6,,2.05,6,,171
2013-7-14,88,82,75,76,67,50,78,63,39,29.90,29.84,29.77,12,10,4,14,6,,0.01,6,Rain-Thunderstorm,268
2013-7-15,88,82,75,75,68,64,75,62,48,29.86,29.82,29.76,15,11,8,14,6,,0.00,6,,262
2013-7-16,88,80,73,75,67,50,88,64,30,29.93,29.87,29.82,12,10,5,12,6,,0.01,8,Rain,45
2013-7-17,90,82,73,75,66,50,80,63,44,29.97,29.91,29.82,15,11,10,14,6,,0.05,7,,294
2013-7-18,91,82,73,76,66,63,77,59,43,29.99,29.91,29.81,15,12,10,16,7,,0.00,7,,284
2013-7-19,89,82,75,75,67,64,74,61,48,29.95,29.89,29.82,15,12,8,14,6,,0.00,6,,282
2013-7-20,90,82,73,75,67,63,78,61,46,29.90,29.84,29.76,14,11,10,14,7,,0.00,6,,262
2013-7-21,89,80,71,76,65,63,73,61,40,29.92,29.87,29.82,15,12,8,13,7,,0.00,5,,228
2013-7-22,91,81,71,76,66,61,81,58,36,29.94,29.89,29.84,15,12,10,14,6,,0.00,5,,280
2013-7-23,91,83,75,76,67,64,77,60,43,29.96,29.90,29.83,12,11,10,14,6,,0.02,8,Rain,306
2013-7-24,91,81,71,75,66,63,79,58,41,29.90,29.85,29.76,15,12,10,18,8,,0.25,4,,274
2013-7-25,92,82,73,79,68,63,81,61,46,29.97,29.89,29.85,15,12,10,15,8,,0.00,6,Rain,333
2013-7-26,93,82,71,78,66,59,72,56,36,30.01,29.92,29.56,15,12,10,22,9,,0.00,3,,283
2013-7-27,91,84,77,77,68,64,75,58,41,29.94,29.87,29.78,15,11,8,14,7,,0.00,5,,193
2013-7-28,89,81,73,80,68,64,100,66,46,29.93,29.86,29.80,15,10,1,18,8,,0.00,7,Rain-Thunderstorm,204
2013-7-29,91,83,75,78,68,64,80,62,49,29.98,29.91,29.85,15,12,8,14,7,,0.05,6,,232
2013-7-30,89,82,75,78,69,66,80,63,49,30.00,29.94,29.87,12,11,10,15,8,,0.00,4,,234
2013-7-31,88,80,73,77,67,48,78,62,27,29.99,29.93,29.86,15,12,8,12,7,,0.00,6,Rain-Thunderstorm,196